.
WxDataArchive / Data Records for 2009-10-04
2009-10-03 October 2009 2009-10-05

Data Records for Sunday, 04 October 2009

Time	Temp	Chill	HIndex	Humid	Dewpt	 Wind 	HiWind	WindDir	Rain 	Barom 
-----	----	-----	------	-----	-----	------	------	-------	-----	----- 
00:00	51.0	51.0	51.0	85	46.7	1	4	270	0.00	29.885 
00:05	50.8	50.8	50.8	87	47.1	2	5	270	0.00	29.885 
00:10	50.5	50.5	50.5	88	47.1	2	5	270	0.01	29.885 
00:15	50.1	50.1	50.1	89	47.0	2	5	270	0.00	29.886 
00:20	49.9	49.9	49.9	90	47.1	0	2	270	0.01	29.886 
00:25	49.8	49.8	49.8	91	47.3	1	3	292	0.00	29.886 
00:30	49.6	49.6	49.6	91	47.1	1	3	292	0.00	29.887 
00:35	49.6	49.6	49.6	92	47.4	0	1	202	0.00	29.887 
00:40	49.6	49.6	49.6	92	47.4	0	2	202	0.00	29.887 
00:45	49.5	49.5	49.5	92	47.3	1	3	202	0.00	29.887 
00:50	49.5	49.5	49.5	92	47.3	0	2	248	0.00	29.887 
00:55	49.5	49.5	49.5	92	47.3	1	3	248	0.00	29.887 
01:00	49.5	49.5	49.5	92	47.3	0	3	248	0.00	29.884 
01:05	49.5	49.5	49.5	92	47.3	0	2	248	0.00	29.884 
01:10	49.5	49.5	49.5	92	47.3	0	2	248	0.00	29.884 
01:15	49.5	49.5	49.5	93	47.6	0	2	248	0.00	29.888 
01:20	49.5	49.5	49.5	92	47.3	1	3	248	0.00	29.888 
01:25	49.5	49.5	49.5	92	47.3	0	3	248	0.00	29.888 
01:30	49.5	49.5	49.5	92	47.3	1	3	248	0.00	29.889 
01:35	49.5	49.5	49.5	92	47.3	1	3	248	0.00	29.889 
01:40	49.6	49.6	49.6	92	47.4	1	4	270	0.00	29.889 
01:45	49.6	49.6	49.6	92	47.4	1	3	248	0.00	29.891 
01:50	49.6	49.6	49.6	91	47.1	1	3	248	0.00	29.891 
01:55	49.8	49.8	49.8	91	47.3	1	2	248	0.00	29.891 
02:00	49.8	49.8	49.8	91	47.3	1	3	292	0.00	29.891 
02:05	49.8	49.8	49.8	91	47.3	0	3	248	0.00	29.891 
02:10	49.8	49.8	49.8	90	47.0	1	3	248	0.00	29.891 
02:15	49.9	49.9	49.9	90	47.1	1	3	248	0.00	29.892 
02:20	49.9	49.9	49.9	90	47.1	1	3	248	0.00	29.892 
02:25	49.9	49.9	49.9	90	47.1	1	3	248	0.00	29.892 
02:30	50.1	50.1	50.1	90	47.3	1	4	248	0.00	29.896 
02:35	50.1	50.1	50.1	89	47.0	1	3	248	0.00	29.896 
02:40	50.1	50.1	50.1	89	47.0	1	3	248	0.00	29.896 
02:45	50.1	50.1	50.1	89	47.0	0	2	315	0.00	29.899 
02:50	50.1	50.1	50.1	88	46.7	1	4	270	0.00	29.899 
02:55	50.1	50.1	50.1	88	46.7	1	3	270	0.00	29.899 
03:00	50.1	50.1	50.1	88	46.7	1	4	270	0.00	29.901 
03:05	50.1	50.1	50.1	88	46.7	0	2	270	0.00	29.901 
03:10	50.1	50.1	50.1	88	46.7	0	1	270	0.00	29.901 
03:15	50.1	50.1	50.1	88	46.7	1	4	248	0.00	29.901 
03:20	50.1	50.1	50.1	88	46.7	1	2	248	0.00	29.901 
03:25	50.1	50.1	50.1	88	46.7	1	4	248	0.00	29.901 
03:30	50.2	50.2	50.2	88	46.8	1	3	270	0.00	29.904 
03:35	50.1	50.1	50.1	88	46.7	1	4	270	0.00	29.904 
03:40	50.1	50.1	50.1	87	46.4	1	5	248	0.00	29.904 
03:45	49.9	49.9	49.9	87	46.2	2	5	270	0.00	29.906 
03:50	49.9	49.9	49.9	86	45.9	1	5	270	0.00	29.906 
03:55	49.9	49.9	49.9	86	45.9	1	4	270	0.00	29.906 
04:00	49.9	49.9	49.9	85	45.6	1	4	248	0.00	29.908 
04:05	49.8	49.8	49.8	85	45.5	1	6	248	0.00	29.908 
04:10	49.8	49.8	49.8	83	44.8	2	5	270	0.00	29.908 
04:15	49.8	49.8	49.8	83	44.8	1	4	270	0.00	29.909 
04:20	49.8	49.8	49.8	83	44.8	1	4	270	0.00	29.909 
04:25	49.8	49.8	49.8	83	44.8	1	3	270	0.00	29.909 
04:30	49.8	49.8	49.8	84	45.2	1	3	270	0.00	29.918 
04:35	49.8	49.8	49.8	84	45.2	1	4	270	0.00	29.918 
04:40	49.8	49.8	49.8	85	45.5	1	4	248	0.00	29.918 
04:45	49.8	49.8	49.8	85	45.5	1	4	248	0.00	29.923 
04:50	49.6	49.6	49.6	85	45.3	1	4	270	0.00	29.923 
04:55	49.6	49.6	49.6	85	45.3	1	3	270	0.00	29.923 
05:00	49.6	49.6	49.6	85	45.3	1	3	270	0.00	29.926 
05:05	49.6	49.6	49.6	85	45.3	1	3	248	0.00	29.926 
05:10	49.6	49.6	49.6	85	45.3	1	3	248	0.00	29.926 
05:15	49.6	49.6	49.6	85	45.3	1	3	248	0.00	29.934 
05:20	49.6	49.6	49.6	86	45.6	0	3	248	0.00	29.934 
05:25	49.5	49.5	49.5	85	45.2	1	5	248	0.00	29.934 
05:30	49.4	49.4	49.4	84	44.8	1	3	270	0.00	29.940 
05:35	49.4	49.4	49.4	84	44.8	2	4	270	0.00	29.940 
05:40	49.4	49.4	49.4	84	44.8	1	3	315	0.00	29.940 
05:45	49.4	49.4	49.4	84	44.8	1	3	315	0.00	29.943 
05:50	49.2	49.2	49.2	83	44.3	1	3	315	0.00	29.943 
05:55	49.2	49.2	49.2	83	44.3	1	3	315	0.00	29.943 
06:00	49.2	49.2	49.2	82	43.9	0	2	270	0.00	29.943 
06:05	49.1	49.1	49.1	82	43.8	1	4	270	0.00	29.943 
06:10	49.1	49.1	49.1	83	44.2	0	2	270	0.00	29.943 
06:15	49.1	49.1	49.1	83	44.2	1	3	248	0.00	29.941 
06:20	49.1	49.1	49.1	84	44.5	0	2	248	0.00	29.941 
06:25	48.9	48.9	48.9	84	44.3	0	2	248	0.00	29.941 
06:30	48.8	48.8	48.8	84	44.2	1	2	248	0.00	29.944 
06:35	48.8	48.8	48.8	85	44.5	1	3	248	0.00	29.944 
06:40	48.6	48.6	48.6	86	44.6	1	3	248	0.00	29.944 
06:45	48.6	48.6	48.6	86	44.6	0	2	248	0.00	29.951 
06:50	48.6	48.6	48.6	87	44.9	0	2	248	0.00	29.951 
06:55	48.6	48.6	48.6	87	44.9	0	2	248	0.00	29.951 
07:00	48.8	48.8	48.8	87	45.1	1	2	248	0.00	29.955 
07:05	48.8	48.8	48.8	87	45.1	0	2	248	0.00	29.955 
07:10	48.9	48.9	48.9	87	45.2	0	2	248	0.00	29.955 
07:15	48.9	48.9	48.9	87	45.2	0	2	248	0.00	29.956 
07:20	48.9	48.9	48.9	87	45.2	0	2	248	0.00	29.956 
07:25	48.9	48.9	48.9	87	45.2	1	3	248	0.00	29.956 
07:30	49.1	49.1	49.1	87	45.4	1	3	248	0.00	29.961 
07:35	48.9	48.9	48.9	86	44.9	1	3	248	0.00	29.961 
07:40	48.9	48.9	48.9	86	44.9	1	3	248	0.00	29.961 
07:45	48.9	48.9	48.9	85	44.6	1	4	248	0.00	29.964 
07:50	48.9	48.9	48.9	84	44.3	1	3	248	0.00	29.964 
07:55	48.8	48.8	48.8	84	44.2	1	3	248	0.00	29.964 
08:00	48.8	48.8	48.8	84	44.2	1	6	248	0.00	29.971 
08:05	48.8	48.8	48.8	83	43.9	1	5	270	0.00	29.971 
08:10	48.8	48.8	48.8	83	43.9	1	4	248	0.00	29.971 
08:15	48.8	48.8	48.8	83	43.9	1	2	112	0.00	29.972 
08:20	48.5	48.5	48.5	82	43.3	1	4	248	0.00	29.972 
08:25	48.5	48.5	48.5	82	43.3	1	3	248	0.00	29.972 
08:30	48.6	48.6	48.6	83	43.7	1	3	248	0.00	29.980 
08:35	48.8	48.8	48.8	83	43.9	1	3	248	0.00	29.980 
08:40	48.8	48.8	48.8	83	43.9	1	4	248	0.00	29.980 
08:45	48.9	48.9	48.9	83	44.0	1	3	248	0.00	29.987 
08:50	48.9	48.9	48.9	83	44.0	2	4	248	0.00	29.987 
08:55	49.1	49.1	49.1	83	44.2	1	5	270	0.00	29.987 
09:00	49.1	49.1	49.1	83	44.2	2	5	270	0.00	29.989 
09:05	49.2	49.2	49.2	83	44.3	1	4	270	0.00	29.989 
09:10	49.4	49.4	49.4	83	44.5	1	3	270	0.00	29.989 
09:15	49.5	49.5	49.5	82	44.2	1	4	270	0.00	29.991 
09:20	49.6	49.6	49.6	82	44.3	2	6	248	0.00	29.991 
09:25	49.6	49.6	49.6	82	44.3	1	5	270	0.00	29.991 
09:30	49.6	49.6	49.6	82	44.3	2	4	270	0.00	29.994 
09:35	49.6	49.6	49.6	82	44.3	1	5	225	0.00	29.994 
09:40	49.8	49.8	49.8	82	44.5	1	4	225	0.00	29.994 
09:45	49.9	49.9	49.9	81	44.3	1	4	270	0.00	30.003 
09:50	50.2	50.2	50.2	81	44.6	2	5	270	0.00	30.003 
09:55	50.2	50.2	50.2	80	44.3	2	5	270	0.00	30.003 
10:00	50.4	50.4	50.4	80	44.5	2	5	270	0.00	30.004 
10:05	50.4	50.4	50.4	80	44.5	2	5	248	0.00	30.004 
10:10	50.4	50.4	50.4	80	44.5	2	5	270	0.00	30.004 
10:15	50.5	50.5	50.5	80	44.6	1	3	270	0.00	30.005 
10:20	50.7	50.7	50.7	80	44.8	1	3	270	0.00	30.005 
10:25	51.0	51.0	51.0	81	45.4	0	3	270	0.00	30.005 
10:30	51.3	51.3	51.3	81	45.7	1	3	270	0.00	30.006 
10:35	51.6	51.6	51.6	79	45.3	1	4	270	0.00	30.006 
10:40	51.6	51.6	51.6	79	45.3	1	4	248	0.00	30.006 
10:45	51.4	51.4	51.4	79	45.1	2	4	248	0.00	30.010 
10:50	51.6	51.6	51.6	79	45.3	2	4	270	0.00	30.010 
10:55	51.7	51.7	51.7	79	45.4	2	5	270	0.00	30.010 
11:00	51.7	51.7	51.7	79	45.4	2	5	292	0.00	30.016 
11:05	51.9	51.9	51.9	80	45.9	1	5	270	0.00	30.016 
11:10	52.0	52.0	52.0	79	45.7	2	4	248	0.00	30.016 
11:15	51.9	51.9	51.9	79	45.6	2	7	270	0.00	30.021 
11:20	51.9	51.9	51.9	79	45.6	3	7	270	0.00	30.021 
11:25	51.9	51.9	51.9	79	45.6	2	4	292	0.00	30.021 
11:30	51.9	51.9	51.9	79	45.6	2	4	225	0.00	30.023 
11:35	51.9	51.9	51.9	79	45.6	2	5	292	0.00	30.023 
11:40	51.9	51.9	51.9	79	45.6	2	4	270	0.00	30.023 
11:45	51.9	51.9	51.9	79	45.6	1	4	270	0.00	30.022 
11:50	51.9	51.9	51.9	79	45.6	2	5	292	0.00	30.022 
11:55	51.7	51.7	51.7	80	45.7	2	4	292	0.00	30.022 
12:00	51.7	51.7	51.7	81	46.1	1	4	270	0.00	30.022 
12:05	52.0	52.0	52.0	80	46.0	2	4	270	0.00	30.022 
12:10	52.3	52.3	52.3	79	46.0	2	4	270	0.00	30.022 
12:15	52.6	52.6	52.6	78	45.9	2	5	292	0.00	30.022 
12:20	52.8	52.8	52.8	77	45.8	2	4	292	0.00	30.022 
12:25	53.1	53.1	53.1	77	46.1	1	3	225	0.00	30.022 
12:30	53.5	53.5	53.5	77	46.5	1	3	292	0.00	30.018 
12:35	53.8	53.8	53.8	75	46.1	2	5	270	0.00	30.018 
12:40	53.9	53.9	53.9	74	45.8	2	4	270	0.00	30.018 
12:45	54.1	54.1	54.1	74	46.0	2	5	270	0.00	30.018 
12:50	54.4	54.4	54.4	73	45.9	2	4	270	0.00	30.018 
12:55	54.7	54.7	54.7	72	45.9	2	5	270	0.00	30.018 
13:00	55.1	55.1	55.1	72	46.2	1	4	270	0.00	30.016 
13:05	55.4	55.4	55.4	71	46.2	1	3	270	0.00	30.016 
13:10	55.4	55.4	55.4	69	45.4	3	5	270	0.00	30.016 
13:15	55.3	55.3	55.3	69	45.3	2	5	315	0.00	30.017 
13:20	55.4	55.4	55.4	69	45.4	2	6	270	0.00	30.017 
13:25	55.7	55.7	55.7	69	45.7	2	6	270	0.00	30.017 
13:30	56.0	56.0	56.0	69	46.0	1	4	270	0.00	30.013 
13:35	56.7	56.7	56.7	67	45.9	1	3	270	0.00	30.013 
13:40	56.5	56.5	56.5	63	44.1	2	5	270	0.00	30.013 
13:45	56.2	56.2	56.2	65	44.6	1	4	270	0.00	30.012 
13:50	56.0	56.0	56.0	65	44.4	1	3	270	0.00	30.012 
13:55	55.9	55.9	55.9	64	43.9	2	4	270	0.00	30.012 
14:00	55.7	55.7	55.7	65	44.1	1	3	248	0.00	30.010 
14:05	55.9	55.9	55.9	65	44.3	1	4	292	0.00	30.010 
14:10	56.3	56.3	56.3	65	44.7	1	5	270	0.00	30.010 
14:15	57.2	57.2	57.2	62	44.3	2	5	270	0.00	30.006 
14:20	57.6	57.6	57.6	61	44.2	2	5	248	0.00	30.006 
14:25	57.0	57.0	57.0	59	42.8	3	5	248	0.00	30.006 
14:30	56.3	56.3	56.3	62	43.4	2	5	248	0.00	30.008 
14:35	56.2	56.2	56.2	61	42.9	1	4	270	0.00	30.008 
14:40	56.0	56.0	56.0	62	43.2	2	5	270	0.00	30.008 
14:45	56.6	56.6	56.6	61	43.3	1	4	292	0.00	30.004 
14:50	56.5	56.5	56.5	60	42.8	2	5	270	0.00	30.004 
14:55	56.2	56.2	56.2	60	42.5	1	4	225	0.00	30.004 
15:00	55.9	55.9	55.9	62	43.1	1	3	292	0.00	30.007 
15:05	55.7	55.7	55.7	62	42.9	1	3	292	0.00	30.007 
15:10	56.0	56.0	56.0	64	44.0	1	3	270	0.00	30.007 
15:15	56.2	56.2	56.2	62	43.4	1	4	270	0.00	30.004 
15:20	56.2	56.2	56.2	61	42.9	3	5	270	0.00	30.004 
15:25	56.5	56.5	56.5	62	43.6	0	2	270	0.00	30.004 
15:30	56.5	56.5	56.5	62	43.6	1	3	248	0.00	30.006 
15:35	56.5	56.5	56.5	62	43.6	1	4	270	0.00	30.006 
15:40	56.3	56.3	56.3	61	43.0	1	3	270	0.00	30.006 
15:45	56.3	56.3	56.3	62	43.4	1	4	270	0.00	30.008 
15:50	56.3	56.3	56.3	62	43.4	1	3	270	0.00	30.008 
15:55	56.5	56.5	56.5	62	43.6	1	3	270	0.00	30.008 
16:00	56.5	56.5	56.5	61	43.2	1	3	338	0.00	30.004 
16:05	56.7	56.7	56.7	61	43.4	1	3	292	0.00	30.004 
16:10	56.9	56.9	56.9	60	43.2	1	3	292	0.00	30.004 
16:15	56.9	56.9	56.9	60	43.2	2	5	270	0.00	30.009 
16:20	57.3	57.3	57.3	59	43.1	1	4	248	0.00	30.009 
16:25	57.6	57.6	57.6	59	43.4	1	3	248	0.00	30.009 
16:30	57.6	57.6	57.6	58	42.9	1	4	248	0.00	30.005 
16:35	57.3	57.3	57.3	58	42.6	2	4	270	0.00	30.005 
16:40	57.2	57.2	57.2	59	43.0	2	4	270	0.00	30.005 
16:45	57.5	57.5	57.5	59	43.3	1	3	248	0.00	30.012 
16:50	57.6	57.6	57.6	60	43.8	1	3	248	0.00	30.012 
16:55	57.8	57.8	57.8	58	43.1	1	3	270	0.00	30.012 
17:00	57.5	57.5	57.5	57	42.4	2	5	270	0.00	30.014 
17:05	57.2	57.2	57.2	57	42.1	2	5	270	0.00	30.014 
17:10	57.0	57.0	57.0	57	41.9	1	3	270	0.00	30.014 
17:15	56.7	56.7	56.7	57	41.6	1	3	270	0.00	30.015 
17:20	56.6	56.6	56.6	59	42.4	0	1	270	0.00	30.015 
17:25	56.7	56.7	56.7	60	43.0	1	4	270	0.00	30.015 
17:30	57.2	57.2	57.2	59	43.0	0	3	270	0.00	30.015 
17:35	57.2	57.2	57.2	58	42.6	1	3	270	0.00	30.015 
17:40	57.2	57.2	57.2	59	43.0	0	2	270	0.00	30.015 
17:45	57.3	57.3	57.3	57	42.2	1	4	270	0.00	30.015 
17:50	57.3	57.3	57.3	56	41.7	1	3	248	0.00	30.015 
17:55	57.5	57.5	57.5	57	42.4	1	2	248	0.00	30.015 
18:00	57.3	57.3	57.3	55	41.3	1	4	270	0.00	30.017 
18:05	57.0	57.0	57.0	56	41.5	0	2	270	0.00	30.017 
18:10	56.6	56.6	56.6	57	41.5	0	4	270	0.00	30.017 
18:15	56.5	56.5	56.5	58	41.9	0	1	270	0.00	30.018 
18:20	56.5	56.5	56.5	58	41.9	0	2	270	0.00	30.018 
18:25	56.5	56.5	56.5	59	42.3	0	1	270	0.00	30.018 
18:30	56.5	56.5	56.5	58	41.9	0	1	270	0.00	30.018 
18:35	56.5	56.5	56.5	58	41.9	0	2	270	0.00	30.018 
18:40	56.3	56.3	56.3	58	41.7	0	1	270	0.00	30.018 
18:45	56.2	56.2	56.2	59	42.1	0	1	270	0.00	30.021 
18:50	55.9	55.9	55.9	58	41.3	0	2	270	0.00	30.021 
18:55	55.6	55.6	55.6	59	41.5	0	1	270	0.00	30.021 
19:00	55.4	55.4	55.4	60	41.7	0	1	270	0.00	30.021 
19:05	55.1	55.1	55.1	61	41.9	0	0	---	0.00	30.021 
19:10	54.7	54.7	54.7	62	41.9	0	0	---	0.00	30.021 
19:15	54.2	54.2	54.2	63	41.9	0	0	---	0.00	30.028 
19:20	53.8	53.8	53.8	64	41.9	0	0	---	0.00	30.028 
19:25	53.3	53.3	53.3	65	41.8	0	0	---	0.00	30.028 
19:30	52.8	52.8	52.8	66	41.8	0	0	---	0.00	30.032 
19:35	52.3	52.3	52.3	68	42.1	0	0	---	0.00	30.032 
19:40	51.7	51.7	51.7	69	41.9	0	0	---	0.00	30.032 
19:45	51.3	51.3	51.3	70	41.9	0	0	---	0.00	30.035 
19:50	50.8	50.8	50.8	72	42.1	0	0	---	0.00	30.035 
19:55	50.4	50.4	50.4	73	42.1	0	0	---	0.00	30.035 
20:00	49.8	49.8	49.8	74	41.9	0	0	---	0.00	30.038 
20:05	49.4	49.4	49.4	76	42.2	0	0	---	0.00	30.038 
20:10	48.9	48.9	48.9	78	42.3	0	0	---	0.00	30.038 
20:15	48.5	48.5	48.5	79	42.3	0	0	---	0.00	30.046 
20:20	48.0	48.0	48.0	80	42.1	0	0	---	0.00	30.046 
20:25	47.7	47.7	47.7	81	42.2	0	0	---	0.00	30.046 
20:30	47.4	47.4	47.4	82	42.2	0	0	---	0.00	30.055 
20:35	47.1	47.1	47.1	83	42.2	0	0	---	0.00	30.055 
20:40	46.8	46.8	46.8	84	42.2	0	0	---	0.00	30.055 
20:45	46.5	46.5	46.5	84	41.9	0	0	---	0.00	30.055 
20:50	46.4	46.4	46.4	85	42.1	0	0	---	0.00	30.055 
20:55	46.1	46.1	46.1	86	42.1	0	0	---	0.00	30.055 
21:00	46.0	46.0	46.0	86	42.0	0	0	---	0.00	30.063 
21:05	45.7	45.7	45.7	87	42.1	0	0	---	0.00	30.063 
21:10	45.5	45.5	45.5	87	41.9	0	0	---	0.00	30.063 
21:15	45.4	45.4	45.4	88	42.1	0	0	---	0.00	30.064 
21:20	45.1	45.1	45.1	88	41.8	0	0	---	0.00	30.064 
21:25	44.9	44.9	44.9	88	41.6	0	0	---	0.00	30.064 
21:30	44.8	44.8	44.8	88	41.5	0	0	---	0.00	30.064 
21:35	44.5	44.5	44.5	89	41.5	0	0	---	0.00	30.064 
21:40	44.3	44.3	44.3	89	41.3	0	0	---	0.00	30.064 
21:45	44.2	44.2	44.2	89	41.2	0	0	---	0.00	30.071 
21:50	44.1	44.1	44.1	89	41.1	0	0	---	0.00	30.071 
21:55	43.9	43.9	43.9	90	41.2	0	0	---	0.00	30.071 
22:00	43.8	43.8	43.8	90	41.1	0	0	---	0.00	30.072 
22:05	43.5	43.5	43.5	90	40.8	0	0	---	0.00	30.072 
22:10	43.3	43.3	43.3	91	40.9	0	0	---	0.00	30.072 
22:15	43.3	43.3	43.3	91	40.9	0	0	---	0.00	30.070 
22:20	43.2	43.2	43.2	91	40.8	0	0	---	0.00	30.070 
22:25	43.1	43.1	43.1	91	40.7	0	0	---	0.00	30.070 
22:30	42.9	42.9	42.9	91	40.5	0	0	---	0.00	30.072 
22:35	42.8	42.8	42.8	92	40.6	0	0	---	0.00	30.072 
22:40	42.6	42.6	42.6	92	40.4	0	0	---	0.00	30.072 
22:45	42.5	42.5	42.5	92	40.3	0	0	---	0.00	30.073 
22:50	42.3	42.3	42.3	92	40.1	0	0	---	0.00	30.073 
22:55	42.3	42.3	42.3	92	40.1	0	0	---	0.00	30.073 
23:00	42.3	42.3	42.3	92	40.1	0	0	---	0.00	30.073 
23:05	42.2	42.2	42.2	92	40.0	0	0	---	0.00	30.073 
23:10	42.2	42.2	42.2	92	40.0	0	0	---	0.00	30.073 
23:15	41.9	41.9	41.9	92	39.7	0	0	---	0.00	30.070 
23:20	41.9	41.9	41.9	92	39.7	0	0	---	0.00	30.070 
23:25	41.8	41.8	41.8	93	39.9	0	0	---	0.00	30.070 
23:30	41.6	41.6	41.6	93	39.7	0	0	---	0.00	30.073 
23:35	41.6	41.6	41.6	93	39.7	0	0	---	0.00	30.073 
23:40	41.5	41.5	41.5	93	39.6	0	0	---	0.00	30.073 
23:45	41.3	41.3	41.3	93	39.4	0	0	---	0.00	30.074 
23:50	41.3	41.3	41.3	93	39.4	0	0	---	0.00	30.074 
23:55	41.2	41.2	41.2	93	39.3	0	0	---	0.00	30.074 

CoCoRaHS
IN-AL-39
A2 Web Hosting
Creative Commons License
GoDaddy
search engine by freefind advanced

loaded 2018-11-14 03:31:34 • last modified 2010-11-18 10:43:29
Privacy PolicyDisclaimer
• wx.awcolley.com is powered by PmWiki v.2002016 •
• all content (unless otherwise noted) © 2018 A W Colley